sensor_id;sensor_type;location;lat;lon;timestamp;P1;durP1;ratioP1;P2;durP2;ratioP2
38851;SDS011;24605;50.092;9.182;2023-05-08T00:02:09;6.47;;;4.50;;
38851;SDS011;24605;50.092;9.182;2023-05-08T00:04:36;6.15;;;4.50;;
38851;SDS011;24605;50.092;9.182;2023-05-08T00:07:02;7.55;;;4.63;;
38851;SDS011;24605;50.092;9.182;2023-05-08T00:09:30;6.97;;;4.75;;
38851;SDS011;24605;50.092;9.182;2023-05-08T00:11:56;6.88;;;4.88;;
38851;SDS011;24605;50.092;9.182;2023-05-08T00:14:23;6.13;;;4.70;;
38851;SDS011;24605;50.092;9.182;2023-05-08T00:16:49;7.22;;;4.90;;
38851;SDS011;24605;50.092;9.182;2023-05-08T00:19:16;6.18;;;4.60;;
38851;SDS011;24605;50.092;9.182;2023-05-08T00:21:42;8.32;;;4.80;;
38851;SDS011;24605;50.092;9.182;2023-05-08T00:24:09;7.85;;;4.90;;
38851;SDS011;24605;50.092;9.182;2023-05-08T00:26:36;6.72;;;4.38;;
38851;SDS011;24605;50.092;9.182;2023-05-08T00:29:03;6.93;;;5.00;;
38851;SDS011;24605;50.092;9.182;2023-05-08T00:31:29;7.78;;;4.85;;
38851;SDS011;24605;50.092;9.182;2023-05-08T00:33:56;5.82;;;4.45;;
38851;SDS011;24605;50.092;9.182;2023-05-08T00:36:22;6.88;;;4.80;;
38851;SDS011;24605;50.092;9.182;2023-05-08T00:38:49;7.22;;;4.97;;
38851;SDS011;24605;50.092;9.182;2023-05-08T00:41:15;7.18;;;4.80;;
38851;SDS011;24605;50.092;9.182;2023-05-08T00:43:43;6.70;;;4.45;;
38851;SDS011;24605;50.092;9.182;2023-05-08T00:46:09;6.63;;;4.60;;
38851;SDS011;24605;50.092;9.182;2023-05-08T00:48:36;7.15;;;5.30;;
38851;SDS011;24605;50.092;9.182;2023-05-08T00:51:05;7.18;;;4.82;;
38851;SDS011;24605;50.092;9.182;2023-05-08T00:53:36;7.63;;;4.88;;
38851;SDS011;24605;50.092;9.182;2023-05-08T00:56:05;7.28;;;4.63;;
38851;SDS011;24605;50.092;9.182;2023-05-08T00:58:35;6.22;;;4.45;;
38851;SDS011;24605;50.092;9.182;2023-05-08T01:01:03;7.45;;;4.60;;
38851;SDS011;24605;50.092;9.182;2023-05-08T01:03:31;7.97;;;5.10;;
38851;SDS011;24605;50.092;9.182;2023-05-08T01:05:58;7.25;;;4.95;;
38851;SDS011;24605;50.092;9.182;2023-05-08T01:08:24;7.10;;;5.00;;
38851;SDS011;24605;50.092;9.182;2023-05-08T01:10:54;7.90;;;4.93;;
38851;SDS011;24605;50.092;9.182;2023-05-08T01:13:41;6.68;;;5.07;;
38851;SDS011;24605;50.092;9.182;2023-05-08T01:16:18;6.05;;;4.82;;
38851;SDS011;24605;50.092;9.182;2023-05-08T01:18:52;8.10;;;4.80;;
38851;SDS011;24605;50.092;9.182;2023-05-08T01:21:26;6.72;;;5.10;;
38851;SDS011;24605;50.092;9.182;2023-05-08T01:32:49;6.35;;;4.60;;
38851;SDS011;24605;50.092;9.182;2023-05-08T01:35:20;8.55;;;5.18;;
38851;SDS011;24605;50.092;9.182;2023-05-08T01:37:55;6.85;;;5.30;;
38851;SDS011;24605;50.092;9.182;2023-05-08T01:40:27;7.80;;;5.28;;
38851;SDS011;24605;50.092;9.182;2023-05-08T01:43:02;7.97;;;5.45;;
38851;SDS011;24605;50.092;9.182;2023-05-08T01:45:37;8.60;;;5.90;;
38851;SDS011;24605;50.092;9.182;2023-05-08T01:48:08;9.25;;;6.03;;
38851;SDS011;24605;50.092;9.182;2023-05-08T01:50:40;11.13;;;5.75;;
38851;SDS011;24605;50.092;9.182;2023-05-08T01:53:24;7.07;;;5.40;;
38851;SDS011;24605;50.092;9.182;2023-05-08T01:58:23;8.00;;;5.65;;
38851;SDS011;24605;50.092;9.182;2023-05-08T02:00:50;7.30;;;5.45;;
38851;SDS011;24605;50.092;9.182;2023-05-08T02:03:19;9.07;;;6.40;;
38851;SDS011;24605;50.092;9.182;2023-05-08T02:05:48;9.50;;;6.10;;
38851;SDS011;24605;50.092;9.182;2023-05-08T02:08:16;8.63;;;6.00;;
38851;SDS011;24605;50.092;9.182;2023-05-08T02:10:44;9.38;;;6.82;;
38851;SDS011;24605;50.092;9.182;2023-05-08T02:13:13;8.98;;;6.25;;
38851;SDS011;24605;50.092;9.182;2023-05-08T02:15:43;8.20;;;6.65;;
38851;SDS011;24605;50.092;9.182;2023-05-08T02:18:12;9.70;;;6.70;;
38851;SDS011;24605;50.092;9.182;2023-05-08T02:20:42;8.70;;;6.50;;
38851;SDS011;24605;50.092;9.182;2023-05-08T02:23:09;8.85;;;6.38;;
38851;SDS011;24605;50.092;9.182;2023-05-08T02:25:36;8.20;;;6.65;;
38851;SDS011;24605;50.092;9.182;2023-05-08T02:28:04;8.60;;;6.35;;
38851;SDS011;24605;50.092;9.182;2023-05-08T02:30:32;8.20;;;5.88;;
38851;SDS011;24605;50.092;9.182;2023-05-08T02:32:59;10.15;;;7.10;;
38851;SDS011;24605;50.092;9.182;2023-05-08T02:35:26;9.95;;;7.07;;
38851;SDS011;24605;50.092;9.182;2023-05-08T02:37:57;8.13;;;6.65;;
38851;SDS011;24605;50.092;9.182;2023-05-08T02:40:26;9.98;;;7.18;;
38851;SDS011;24605;50.092;9.182;2023-05-08T02:42:54;8.93;;;6.90;;
38851;SDS011;24605;50.092;9.182;2023-05-08T02:45:21;10.50;;;6.97;;
38851;SDS011;24605;50.092;9.182;2023-05-08T02:47:51;10.90;;;7.32;;
38851;SDS011;24605;50.092;9.182;2023-05-08T02:50:26;8.98;;;6.80;;
38851;SDS011;24605;50.092;9.182;2023-05-08T02:52:59;9.38;;;7.28;;
38851;SDS011;24605;50.092;9.182;2023-05-08T02:55:32;10.10;;;7.55;;
38851;SDS011;24605;50.092;9.182;2023-05-08T02:58:02;11.02;;;7.68;;
38851;SDS011;24605;50.092;9.182;2023-05-08T03:00:39;10.82;;;7.55;;
38851;SDS011;24605;50.092;9.182;2023-05-08T03:03:11;10.85;;;7.43;;
38851;SDS011;24605;50.092;9.182;2023-05-08T03:05:44;9.40;;;6.90;;
38851;SDS011;24605;50.092;9.182;2023-05-08T03:08:17;9.38;;;7.05;;
38851;SDS011;24605;50.092;9.182;2023-05-08T03:10:46;10.73;;;7.28;;
38851;SDS011;24605;50.092;9.182;2023-05-08T03:13:17;11.13;;;7.95;;
38851;SDS011;24605;50.092;9.182;2023-05-08T03:15:45;12.90;;;7.65;;
38851;SDS011;24605;50.092;9.182;2023-05-08T03:18:15;9.38;;;7.50;;
38851;SDS011;24605;50.092;9.182;2023-05-08T03:20:45;10.75;;;7.60;;
38851;SDS011;24605;50.092;9.182;2023-05-08T03:23:13;11.80;;;8.02;;
38851;SDS011;24605;50.092;9.182;2023-05-08T03:25:43;10.43;;;7.65;;
38851;SDS011;24605;50.092;9.182;2023-05-08T03:28:10;11.85;;;8.20;;
38851;SDS011;24605;50.092;9.182;2023-05-08T03:30:39;12.07;;;7.85;;
38851;SDS011;24605;50.092;9.182;2023-05-08T03:33:06;9.75;;;7.63;;
38851;SDS011;24605;50.092;9.182;2023-05-08T03:35:34;11.93;;;8.07;;
38851;SDS011;24605;50.092;9.182;2023-05-08T03:38:02;11.07;;;8.23;;
38851;SDS011;24605;50.092;9.182;2023-05-08T03:40:29;10.60;;;8.23;;
38851;SDS011;24605;50.092;9.182;2023-05-08T03:42:57;11.20;;;8.25;;
38851;SDS011;24605;50.092;9.182;2023-05-08T03:45:25;11.05;;;7.82;;
38851;SDS011;24605;50.092;9.182;2023-05-08T03:47:53;10.48;;;7.97;;
38851;SDS011;24605;50.092;9.182;2023-05-08T03:50:20;9.93;;;7.55;;
38851;SDS011;24605;50.092;9.182;2023-05-08T03:52:48;9.90;;;7.70;;
38851;SDS011;24605;50.092;9.182;2023-05-08T03:55:15;10.98;;;8.75;;
38851;SDS011;24605;50.092;9.182;2023-05-08T03:57:44;11.00;;;8.48;;
38851;SDS011;24605;50.092;9.182;2023-05-08T04:00:18;11.63;;;7.77;;
38851;SDS011;24605;50.092;9.182;2023-05-08T04:02:51;10.20;;;7.63;;
38851;SDS011;24605;50.092;9.182;2023-05-08T04:05:23;12.43;;;8.07;;
38851;SDS011;24605;50.092;9.182;2023-05-08T04:10:29;11.60;;;8.10;;
38851;SDS011;24605;50.092;9.182;2023-05-08T04:13:00;12.20;;;8.80;;
38851;SDS011;24605;50.092;9.182;2023-05-08T04:15:31;13.93;;;8.98;;
38851;SDS011;24605;50.092;9.182;2023-05-08T04:18:03;11.02;;;8.32;;
38851;SDS011;24605;50.092;9.182;2023-05-08T04:20:33;10.75;;;8.40;;
38851;SDS011;24605;50.092;9.182;2023-05-08T04:23:03;10.85;;;8.00;;
38851;SDS011;24605;50.092;9.182;2023-05-08T04:25:30;11.25;;;8.27;;
38851;SDS011;24605;50.092;9.182;2023-05-08T04:28:00;13.48;;;7.75;;
38851;SDS011;24605;50.092;9.182;2023-05-08T04:30:27;14.27;;;9.38;;
38851;SDS011;24605;50.092;9.182;2023-05-08T04:32:56;10.70;;;8.60;;
38851;SDS011;24605;50.092;9.182;2023-05-08T04:35:23;11.50;;;8.25;;
38851;SDS011;24605;50.092;9.182;2023-05-08T04:37:49;13.55;;;8.80;;
38851;SDS011;24605;50.092;9.182;2023-05-08T04:40:16;10.63;;;7.80;;
38851;SDS011;24605;50.092;9.182;2023-05-08T04:42:43;10.52;;;8.07;;
38851;SDS011;24605;50.092;9.182;2023-05-08T04:45:11;11.43;;;8.88;;
38851;SDS011;24605;50.092;9.182;2023-05-08T04:47:38;10.30;;;7.80;;
38851;SDS011;24605;50.092;9.182;2023-05-08T04:50:06;10.85;;;8.35;;
38851;SDS011;24605;50.092;9.182;2023-05-08T04:52:33;11.20;;;8.07;;
38851;SDS011;24605;50.092;9.182;2023-05-08T04:54:59;11.77;;;8.63;;
38851;SDS011;24605;50.092;9.182;2023-05-08T04:57:26;11.35;;;8.23;;
38851;SDS011;24605;50.092;9.182;2023-05-08T04:59:53;11.20;;;8.02;;
38851;SDS011;24605;50.092;9.182;2023-05-08T05:02:19;11.68;;;8.32;;
38851;SDS011;24605;50.092;9.182;2023-05-08T05:04:46;11.00;;;8.00;;
38851;SDS011;24605;50.092;9.182;2023-05-08T05:07:13;10.00;;;7.72;;
38851;SDS011;24605;50.092;9.182;2023-05-08T05:09:43;10.93;;;8.57;;
38851;SDS011;24605;50.092;9.182;2023-05-08T05:12:09;10.52;;;7.68;;
38851;SDS011;24605;50.092;9.182;2023-05-08T05:14:36;9.73;;;7.32;;
38851;SDS011;24605;50.092;9.182;2023-05-08T05:17:02;9.00;;;7.13;;
38851;SDS011;24605;50.092;9.182;2023-05-08T05:19:28;10.65;;;7.75;;
38851;SDS011;24605;50.092;9.182;2023-05-08T05:21:55;10.65;;;8.32;;
38851;SDS011;24605;50.092;9.182;2023-05-08T05:24:23;9.15;;;7.32;;
38851;SDS011;24605;50.092;9.182;2023-05-08T05:26:50;9.90;;;7.85;;
38851;SDS011;24605;50.092;9.182;2023-05-08T05:29:16;10.35;;;7.57;;
38851;SDS011;24605;50.092;9.182;2023-05-08T05:31:42;10.32;;;7.50;;
38851;SDS011;24605;50.092;9.182;2023-05-08T05:34:09;9.55;;;7.68;;
38851;SDS011;24605;50.092;9.182;2023-05-08T05:36:36;10.63;;;8.10;;
38851;SDS011;24605;50.092;9.182;2023-05-08T05:39:03;11.60;;;7.35;;
38851;SDS011;24605;50.092;9.182;2023-05-08T05:41:30;9.50;;;7.80;;
38851;SDS011;24605;50.092;9.182;2023-05-08T05:43:58;11.13;;;7.68;;
38851;SDS011;24605;50.092;9.182;2023-05-08T05:46:24;11.75;;;7.97;;
38851;SDS011;24605;50.092;9.182;2023-05-08T05:48:56;9.55;;;7.28;;
38851;SDS011;24605;50.092;9.182;2023-05-08T05:51:22;10.90;;;7.43;;
38851;SDS011;24605;50.092;9.182;2023-05-08T05:53:49;10.43;;;7.88;;
38851;SDS011;24605;50.092;9.182;2023-05-08T05:56:15;10.48;;;7.35;;
38851;SDS011;24605;50.092;9.182;2023-05-08T05:58:43;10.25;;;7.10;;
38851;SDS011;24605;50.092;9.182;2023-05-08T06:01:09;9.70;;;6.70;;
38851;SDS011;24605;50.092;9.182;2023-05-08T06:03:36;13.82;;;7.93;;
38851;SDS011;24605;50.092;9.182;2023-05-08T06:06:02;9.43;;;6.57;;
38851;SDS011;24605;50.092;9.182;2023-05-08T06:08:29;9.30;;;7.57;;
38851;SDS011;24605;50.092;9.182;2023-05-08T06:10:56;10.15;;;7.60;;
38851;SDS011;24605;50.092;9.182;2023-05-08T06:13:22;9.82;;;7.22;;
38851;SDS011;24605;50.092;9.182;2023-05-08T06:15:50;10.48;;;6.85;;
38851;SDS011;24605;50.092;9.182;2023-05-08T06:18:20;10.85;;;7.47;;
38851;SDS011;24605;50.092;9.182;2023-05-08T06:20:47;8.95;;;7.07;;
38851;SDS011;24605;50.092;9.182;2023-05-08T06:23:13;8.45;;;6.68;;
38851;SDS011;24605;50.092;9.182;2023-05-08T06:25:40;9.38;;;6.85;;
38851;SDS011;24605;50.092;9.182;2023-05-08T06:28:06;9.50;;;6.60;;
38851;SDS011;24605;50.092;9.182;2023-05-08T06:30:32;8.55;;;5.95;;
38851;SDS011;24605;50.092;9.182;2023-05-08T06:33:00;8.43;;;6.22;;
38851;SDS011;24605;50.092;9.182;2023-05-08T06:35:27;7.00;;;5.70;;
38851;SDS011;24605;50.092;9.182;2023-05-08T06:37:53;8.75;;;6.65;;
38851;SDS011;24605;50.092;9.182;2023-05-08T06:40:20;9.85;;;6.65;;
38851;SDS011;24605;50.092;9.182;2023-05-08T06:42:47;9.57;;;6.35;;
38851;SDS011;24605;50.092;9.182;2023-05-08T06:45:14;8.70;;;6.97;;
38851;SDS011;24605;50.092;9.182;2023-05-08T06:47:41;12.25;;;7.20;;
38851;SDS011;24605;50.092;9.182;2023-05-08T06:50:10;9.63;;;6.20;;
38851;SDS011;24605;50.092;9.182;2023-05-08T06:52:37;7.63;;;6.20;;
38851;SDS011;24605;50.092;9.182;2023-05-08T06:55:03;8.80;;;6.30;;
38851;SDS011;24605;50.092;9.182;2023-05-08T06:57:30;8.02;;;6.20;;
38851;SDS011;24605;50.092;9.182;2023-05-08T06:59:57;7.85;;;6.03;;
38851;SDS011;24605;50.092;9.182;2023-05-08T07:02:23;9.35;;;6.53;;
38851;SDS011;24605;50.092;9.182;2023-05-08T07:04:50;8.40;;;6.38;;
38851;SDS011;24605;50.092;9.182;2023-05-08T07:07:18;9.88;;;6.43;;
38851;SDS011;24605;50.092;9.182;2023-05-08T07:09:44;9.15;;;6.85;;
38851;SDS011;24605;50.092;9.182;2023-05-08T07:12:13;9.63;;;6.78;;
38851;SDS011;24605;50.092;9.182;2023-05-08T07:14:40;10.75;;;6.47;;
38851;SDS011;24605;50.092;9.182;2023-05-08T07:17:07;10.35;;;7.13;;
38851;SDS011;24605;50.092;9.182;2023-05-08T07:19:34;8.38;;;6.22;;
38851;SDS011;24605;50.092;9.182;2023-05-08T07:22:02;8.02;;;6.43;;
38851;SDS011;24605;50.092;9.182;2023-05-08T07:24:30;9.00;;;6.85;;
38851;SDS011;24605;50.092;9.182;2023-05-08T07:26:57;10.15;;;6.88;;
38851;SDS011;24605;50.092;9.182;2023-05-08T07:29:24;10.30;;;7.20;;
38851;SDS011;24605;50.092;9.182;2023-05-08T07:31:54;9.55;;;6.75;;
38851;SDS011;24605;50.092;9.182;2023-05-08T07:34:20;8.90;;;6.88;;
38851;SDS011;24605;50.092;9.182;2023-05-08T07:36:46;10.25;;;7.20;;
38851;SDS011;24605;50.092;9.182;2023-05-08T07:39:13;10.32;;;6.82;;
38851;SDS011;24605;50.092;9.182;2023-05-08T07:41:41;9.23;;;6.85;;
38851;SDS011;24605;50.092;9.182;2023-05-08T07:44:09;9.13;;;7.13;;
38851;SDS011;24605;50.092;9.182;2023-05-08T07:46:36;9.40;;;6.75;;
38851;SDS011;24605;50.092;9.182;2023-05-08T07:49:02;8.40;;;6.63;;
38851;SDS011;24605;50.092;9.182;2023-05-08T07:51:29;8.73;;;6.97;;
38851;SDS011;24605;50.092;9.182;2023-05-08T07:53:55;9.70;;;7.38;;
38851;SDS011;24605;50.092;9.182;2023-05-08T07:56:22;8.88;;;6.90;;
38851;SDS011;24605;50.092;9.182;2023-05-08T07:58:50;11.07;;;7.78;;
38851;SDS011;24605;50.092;9.182;2023-05-08T08:01:17;9.00;;;6.80;;
38851;SDS011;24605;50.092;9.182;2023-05-08T08:03:43;9.70;;;7.05;;
38851;SDS011;24605;50.092;9.182;2023-05-08T08:06:10;8.93;;;7.07;;
38851;SDS011;24605;50.092;9.182;2023-05-08T08:08:36;9.35;;;6.78;;
38851;SDS011;24605;50.092;9.182;2023-05-08T08:11:03;8.65;;;7.40;;
38851;SDS011;24605;50.092;9.182;2023-05-08T08:13:30;9.07;;;6.50;;
38851;SDS011;24605;50.092;9.182;2023-05-08T08:16:00;8.15;;;6.57;;
38851;SDS011;24605;50.092;9.182;2023-05-08T08:18:28;8.35;;;6.50;;
38851;SDS011;24605;50.092;9.182;2023-05-08T08:20:55;9.55;;;6.90;;
38851;SDS011;24605;50.092;9.182;2023-05-08T08:23:21;8.63;;;6.97;;
38851;SDS011;24605;50.092;9.182;2023-05-08T08:25:49;9.52;;;6.07;;
38851;SDS011;24605;50.092;9.182;2023-05-08T08:28:17;8.93;;;6.32;;
38851;SDS011;24605;50.092;9.182;2023-05-08T08:30:44;8.38;;;6.70;;
38851;SDS011;24605;50.092;9.182;2023-05-08T08:33:11;8.88;;;6.65;;
38851;SDS011;24605;50.092;9.182;2023-05-08T08:35:38;8.02;;;6.10;;
38851;SDS011;24605;50.092;9.182;2023-05-08T08:38:04;9.98;;;6.50;;
38851;SDS011;24605;50.092;9.182;2023-05-08T08:40:31;8.82;;;6.50;;
38851;SDS011;24605;50.092;9.182;2023-05-08T08:42:57;9.02;;;6.68;;
38851;SDS011;24605;50.092;9.182;2023-05-08T08:45:24;9.60;;;6.40;;
38851;SDS011;24605;50.092;9.182;2023-05-08T08:47:51;8.20;;;6.03;;
38851;SDS011;24605;50.092;9.182;2023-05-08T08:50:19;7.85;;;6.32;;
38851;SDS011;24605;50.092;9.182;2023-05-08T08:52:50;8.27;;;6.40;;
38851;SDS011;24605;50.092;9.182;2023-05-08T08:55:21;10.55;;;6.55;;
38851;SDS011;24605;50.092;9.182;2023-05-08T08:57:51;10.63;;;6.95;;
38851;SDS011;24605;50.092;9.182;2023-05-08T09:00:27;9.32;;;6.70;;
38851;SDS011;24605;50.092;9.182;2023-05-08T09:02:56;12.43;;;7.47;;
38851;SDS011;24605;50.092;9.182;2023-05-08T09:05:24;9.82;;;7.50;;
38851;SDS011;24605;50.092;9.182;2023-05-08T09:07:52;11.15;;;7.57;;
38851;SDS011;24605;50.092;9.182;2023-05-08T09:10:19;13.82;;;9.80;;
38851;SDS011;24605;50.092;9.182;2023-05-08T09:12:48;10.27;;;8.15;;
38851;SDS011;24605;50.092;9.182;2023-05-08T09:15:14;10.93;;;8.23;;
38851;SDS011;24605;50.092;9.182;2023-05-08T09:17:41;10.43;;;8.70;;
38851;SDS011;24605;50.092;9.182;2023-05-08T09:20:08;13.10;;;9.98;;
38851;SDS011;24605;50.092;9.182;2023-05-08T09:22:37;15.95;;;11.38;;
38851;SDS011;24605;50.092;9.182;2023-05-08T09:25:04;12.80;;;8.52;;
38851;SDS011;24605;50.092;9.182;2023-05-08T09:27:31;11.75;;;7.70;;
38851;SDS011;24605;50.092;9.182;2023-05-08T09:29:59;10.40;;;7.75;;
38851;SDS011;24605;50.092;9.182;2023-05-08T09:32:28;9.23;;;7.43;;
38851;SDS011;24605;50.092;9.182;2023-05-08T09:34:55;8.82;;;7.05;;
38851;SDS011;24605;50.092;9.182;2023-05-08T09:37:22;8.68;;;6.38;;
38851;SDS011;24605;50.092;9.182;2023-05-08T09:39:51;10.93;;;7.30;;
38851;SDS011;24605;50.092;9.182;2023-05-08T09:42:17;9.35;;;6.80;;
38851;SDS011;24605;50.092;9.182;2023-05-08T09:44:44;9.50;;;6.05;;
38851;SDS011;24605;50.092;9.182;2023-05-08T09:47:12;9.07;;;6.15;;
38851;SDS011;24605;50.092;9.182;2023-05-08T09:49:39;8.02;;;5.78;;
38851;SDS011;24605;50.092;9.182;2023-05-08T09:52:21;7.93;;;6.25;;
38851;SDS011;24605;50.092;9.182;2023-05-08T09:54:51;9.32;;;6.72;;
38851;SDS011;24605;50.092;9.182;2023-05-08T09:57:21;7.75;;;6.10;;
38851;SDS011;24605;50.092;9.182;2023-05-08T09:59:48;8.02;;;6.40;;
38851;SDS011;24605;50.092;9.182;2023-05-08T10:02:14;7.85;;;6.13;;
38851;SDS011;24605;50.092;9.182;2023-05-08T10:04:44;10.43;;;6.75;;
38851;SDS011;24605;50.092;9.182;2023-05-08T10:07:10;8.18;;;6.35;;
38851;SDS011;24605;50.092;9.182;2023-05-08T10:09:37;7.82;;;6.32;;
38851;SDS011;24605;50.092;9.182;2023-05-08T10:12:05;8.60;;;6.28;;
38851;SDS011;24605;50.092;9.182;2023-05-08T10:14:33;9.45;;;6.00;;
38851;SDS011;24605;50.092;9.182;2023-05-08T10:17:00;8.23;;;6.50;;
38851;SDS011;24605;50.092;9.182;2023-05-08T10:19:33;8.68;;;6.70;;
38851;SDS011;24605;50.092;9.182;2023-05-08T10:22:06;10.25;;;6.85;;
38851;SDS011;24605;50.092;9.182;2023-05-08T10:24:36;9.02;;;6.55;;
38851;SDS011;24605;50.092;9.182;2023-05-08T10:27:10;8.00;;;6.70;;
38851;SDS011;24605;50.092;9.182;2023-05-08T10:29:45;8.13;;;6.53;;
38851;SDS011;24605;50.092;9.182;2023-05-08T10:32:17;7.78;;;6.13;;
38851;SDS011;24605;50.092;9.182;2023-05-08T10:34:45;9.90;;;6.80;;
38851;SDS011;24605;50.092;9.182;2023-05-08T10:37:17;7.18;;;5.80;;
38851;SDS011;24605;50.092;9.182;2023-05-08T10:39:45;8.82;;;6.15;;
38851;SDS011;24605;50.092;9.182;2023-05-08T10:42:14;8.18;;;6.90;;
38851;SDS011;24605;50.092;9.182;2023-05-08T10:44:41;8.60;;;6.88;;
38851;SDS011;24605;50.092;9.182;2023-05-08T10:47:10;9.70;;;7.20;;
38851;SDS011;24605;50.092;9.182;2023-05-08T10:49:43;8.80;;;6.97;;
38851;SDS011;24605;50.092;9.182;2023-05-08T10:52:15;11.40;;;7.72;;
38851;SDS011;24605;50.092;9.182;2023-05-08T10:55:13;9.18;;;7.22;;
38851;SDS011;24605;50.092;9.182;2023-05-08T10:58:04;10.60;;;7.35;;
38851;SDS011;24605;50.092;9.182;2023-05-08T11:03:37;9.85;;;7.90;;
38851;SDS011;24605;50.092;9.182;2023-05-08T11:06:05;10.23;;;8.05;;
38851;SDS011;24605;50.092;9.182;2023-05-08T11:08:31;11.50;;;7.97;;
38851;SDS011;24605;50.092;9.182;2023-05-08T11:11:01;10.88;;;7.57;;
38851;SDS011;24605;50.092;9.182;2023-05-08T11:13:33;11.75;;;7.43;;
38851;SDS011;24605;50.092;9.182;2023-05-08T11:16:00;10.18;;;7.90;;
38851;SDS011;24605;50.092;9.182;2023-05-08T11:18:27;10.52;;;8.32;;
38851;SDS011;24605;50.092;9.182;2023-05-08T11:20:55;10.82;;;8.05;;
38851;SDS011;24605;50.092;9.182;2023-05-08T11:23:23;13.45;;;8.68;;
38851;SDS011;24605;50.092;9.182;2023-05-08T11:25:57;12.32;;;8.27;;
38851;SDS011;24605;50.092;9.182;2023-05-08T11:28:25;8.98;;;7.15;;
38851;SDS011;24605;50.092;9.182;2023-05-08T11:30:53;9.40;;;7.60;;
38851;SDS011;24605;50.092;9.182;2023-05-08T11:33:20;9.57;;;7.35;;
38851;SDS011;24605;50.092;9.182;2023-05-08T11:35:51;9.65;;;7.53;;
38851;SDS011;24605;50.092;9.182;2023-05-08T11:38:21;11.25;;;8.30;;
38851;SDS011;24605;50.092;9.182;2023-05-08T11:40:58;8.10;;;6.75;;
38851;SDS011;24605;50.092;9.182;2023-05-08T11:46:38;9.30;;;7.38;;
38851;SDS011;24605;50.092;9.182;2023-05-08T11:49:09;10.80;;;7.75;;
38851;SDS011;24605;50.092;9.182;2023-05-08T11:51:36;10.27;;;7.28;;
38851;SDS011;24605;50.092;9.182;2023-05-08T11:54:08;10.95;;;7.93;;
38851;SDS011;24605;50.092;9.182;2023-05-08T11:56:36;10.35;;;7.57;;
38851;SDS011;24605;50.092;9.182;2023-05-08T11:59:03;10.82;;;8.25;;
38851;SDS011;24605;50.092;9.182;2023-05-08T12:01:30;10.88;;;7.80;;
38851;SDS011;24605;50.092;9.182;2023-05-08T12:04:02;11.07;;;7.93;;
38851;SDS011;24605;50.092;9.182;2023-05-08T12:06:30;8.20;;;6.53;;
38851;SDS011;24605;50.092;9.182;2023-05-08T12:08:58;9.20;;;7.15;;
38851;SDS011;24605;50.092;9.182;2023-05-08T12:11:24;8.57;;;6.90;;
38851;SDS011;24605;50.092;9.182;2023-05-08T12:13:51;10.50;;;7.35;;
38851;SDS011;24605;50.092;9.182;2023-05-08T12:16:19;10.88;;;7.93;;
38851;SDS011;24605;50.092;9.182;2023-05-08T12:18:48;9.75;;;7.35;;
38851;SDS011;24605;50.092;9.182;2023-05-08T12:21:16;9.90;;;7.78;;
38851;SDS011;24605;50.092;9.182;2023-05-08T12:23:43;8.45;;;6.78;;
38851;SDS011;24605;50.092;9.182;2023-05-08T12:26:09;11.43;;;6.90;;
38851;SDS011;24605;50.092;9.182;2023-05-08T12:28:37;8.88;;;6.53;;
38851;SDS011;24605;50.092;9.182;2023-05-08T12:31:04;8.40;;;6.85;;
38851;SDS011;24605;50.092;9.182;2023-05-08T12:33:31;8.30;;;6.40;;
38851;SDS011;24605;50.092;9.182;2023-05-08T12:35:58;10.85;;;7.28;;
38851;SDS011;24605;50.092;9.182;2023-05-08T12:38:28;8.38;;;6.25;;
38851;SDS011;24605;50.092;9.182;2023-05-08T12:40:54;9.57;;;6.53;;
38851;SDS011;24605;50.092;9.182;2023-05-08T12:43:29;10.57;;;6.20;;
38851;SDS011;24605;50.092;9.182;2023-05-08T12:45:56;8.45;;;6.22;;
38851;SDS011;24605;50.092;9.182;2023-05-08T12:48:22;8.15;;;6.15;;
38851;SDS011;24605;50.092;9.182;2023-05-08T12:50:49;6.93;;;5.63;;
38851;SDS011;24605;50.092;9.182;2023-05-08T12:53:16;8.50;;;6.18;;
38851;SDS011;24605;50.092;9.182;2023-05-08T12:55:50;6.85;;;5.90;;
38851;SDS011;24605;50.092;9.182;2023-05-08T12:58:18;7.43;;;5.72;;
38851;SDS011;24605;50.092;9.182;2023-05-08T13:00:46;9.45;;;6.35;;
38851;SDS011;24605;50.092;9.182;2023-05-08T13:03:20;8.55;;;6.15;;
38851;SDS011;24605;50.092;9.182;2023-05-08T13:05:48;7.68;;;5.80;;
38851;SDS011;24605;50.092;9.182;2023-05-08T13:08:15;8.43;;;6.18;;
38851;SDS011;24605;50.092;9.182;2023-05-08T13:10:42;13.18;;;6.70;;
38851;SDS011;24605;50.092;9.182;2023-05-08T13:13:11;7.80;;;5.80;;
38851;SDS011;24605;50.092;9.182;2023-05-08T13:15:38;8.20;;;6.20;;
38851;SDS011;24605;50.092;9.182;2023-05-08T13:18:05;8.50;;;5.80;;
38851;SDS011;24605;50.092;9.182;2023-05-08T13:20:32;6.97;;;5.95;;
38851;SDS011;24605;50.092;9.182;2023-05-08T13:22:58;10.80;;;5.90;;
38851;SDS011;24605;50.092;9.182;2023-05-08T13:25:25;9.63;;;6.20;;
38851;SDS011;24605;50.092;9.182;2023-05-08T13:27:51;6.53;;;5.03;;
38851;SDS011;24605;50.092;9.182;2023-05-08T13:30:19;8.50;;;5.60;;
38851;SDS011;24605;50.092;9.182;2023-05-08T13:32:46;8.90;;;6.20;;
38851;SDS011;24605;50.092;9.182;2023-05-08T13:35:13;9.15;;;6.05;;
38851;SDS011;24605;50.092;9.182;2023-05-08T13:37:39;7.05;;;5.65;;
38851;SDS011;24605;50.092;9.182;2023-05-08T13:40:06;7.47;;;5.68;;
38851;SDS011;24605;50.092;9.182;2023-05-08T13:42:33;9.60;;;5.68;;
38851;SDS011;24605;50.092;9.182;2023-05-08T13:45:00;6.22;;;5.03;;
38851;SDS011;24605;50.092;9.182;2023-05-08T13:47:28;8.60;;;5.72;;
38851;SDS011;24605;50.092;9.182;2023-05-08T13:49:54;8.23;;;5.80;;
38851;SDS011;24605;50.092;9.182;2023-05-08T13:52:21;7.88;;;5.40;;
38851;SDS011;24605;50.092;9.182;2023-05-08T13:54:47;8.48;;;5.38;;
38851;SDS011;24605;50.092;9.182;2023-05-08T13:57:14;10.02;;;5.72;;
38851;SDS011;24605;50.092;9.182;2023-05-08T13:59:40;7.45;;;6.07;;
38851;SDS011;24605;50.092;9.182;2023-05-08T14:02:07;8.68;;;5.63;;
38851;SDS011;24605;50.092;9.182;2023-05-08T14:04:35;6.22;;;5.03;;
38851;SDS011;24605;50.092;9.182;2023-05-08T14:07:01;8.23;;;5.82;;
38851;SDS011;24605;50.092;9.182;2023-05-08T14:09:28;7.05;;;5.80;;
38851;SDS011;24605;50.092;9.182;2023-05-08T14:11:54;7.72;;;5.43;;
38851;SDS011;24605;50.092;9.182;2023-05-08T14:14:20;7.30;;;5.60;;
38851;SDS011;24605;50.092;9.182;2023-05-08T14:16:47;8.25;;;6.05;;
38851;SDS011;24605;50.092;9.182;2023-05-08T14:19:14;8.85;;;5.80;;
38851;SDS011;24605;50.092;9.182;2023-05-08T14:21:44;10.75;;;6.00;;
38851;SDS011;24605;50.092;9.182;2023-05-08T14:24:10;7.72;;;5.70;;
38851;SDS011;24605;50.092;9.182;2023-05-08T14:26:37;9.38;;;5.60;;
38851;SDS011;24605;50.092;9.182;2023-05-08T14:29:03;7.70;;;5.40;;
38851;SDS011;24605;50.092;9.182;2023-05-08T14:31:30;8.35;;;6.03;;
38851;SDS011;24605;50.092;9.182;2023-05-08T14:33:56;9.82;;;6.43;;
38851;SDS011;24605;50.092;9.182;2023-05-08T14:36:22;8.43;;;6.90;;
38851;SDS011;24605;50.092;9.182;2023-05-08T14:38:50;13.27;;;7.28;;
38851;SDS011;24605;50.092;9.182;2023-05-08T14:41:17;9.27;;;6.97;;
38851;SDS011;24605;50.092;9.182;2023-05-08T14:43:43;16.90;;;8.13;;
38851;SDS011;24605;50.092;9.182;2023-05-08T14:46:11;8.93;;;7.57;;
38851;SDS011;24605;50.092;9.182;2023-05-08T14:48:37;10.40;;;7.97;;
38851;SDS011;24605;50.092;9.182;2023-05-08T14:51:03;9.23;;;7.63;;
38851;SDS011;24605;50.092;9.182;2023-05-08T14:53:30;10.15;;;8.38;;
38851;SDS011;24605;50.092;9.182;2023-05-08T14:55:58;11.10;;;8.15;;
38851;SDS011;24605;50.092;9.182;2023-05-08T14:58:24;10.80;;;8.57;;
38851;SDS011;24605;50.092;9.182;2023-05-08T15:00:51;10.18;;;8.20;;
38851;SDS011;24605;50.092;9.182;2023-05-08T15:03:17;10.63;;;8.18;;
38851;SDS011;24605;50.092;9.182;2023-05-08T15:05:44;10.30;;;8.52;;
38851;SDS011;24605;50.092;9.182;2023-05-08T15:08:11;13.65;;;9.38;;
38851;SDS011;24605;50.092;9.182;2023-05-08T15:10:37;11.40;;;8.18;;